createdAt,value
2022-09-20T00:01:32.055Z,12.15
2022-09-20T00:04:06.752Z,12.12
2022-09-20T00:06:36.057Z,12.06
2022-09-20T00:09:05.399Z,12.04
2022-09-20T00:11:36.715Z,12.09
2022-09-20T00:14:08.599Z,12.08
2022-09-20T00:16:41.277Z,12.16
2022-09-20T00:19:17.915Z,12.18
2022-09-20T00:21:46.063Z,12.14
2022-09-20T00:24:14.538Z,12.10
2022-09-20T00:26:42.582Z,12.14
2022-09-20T00:29:12.665Z,12.11
2022-09-20T00:31:42.704Z,12.12
2022-09-20T00:34:30.201Z,12.09
2022-09-20T00:36:58.228Z,11.96
2022-09-20T00:39:26.523Z,11.98
2022-09-20T00:41:54.539Z,11.89
2022-09-20T00:44:56.493Z,11.92
2022-09-20T00:47:35.325Z,11.87
2022-09-20T00:50:25.168Z,11.89
2022-09-20T00:53:00.603Z,11.87
2022-09-20T00:55:29.827Z,11.84
2022-09-20T00:57:59.584Z,11.79
2022-09-20T01:00:28.978Z,11.85
2022-09-20T01:03:02.857Z,11.86
2022-09-20T01:05:32.654Z,11.81
2022-09-20T01:08:00.670Z,11.80
2022-09-20T01:10:28.964Z,11.76
2022-09-20T01:12:57.303Z,11.84
2022-09-20T01:15:28.714Z,11.89
2022-09-20T01:17:59.829Z,11.89
2022-09-20T01:20:32.907Z,11.91
2022-09-20T01:23:19.509Z,11.93
2022-09-20T01:26:42.669Z,11.86
2022-09-20T01:29:26.864Z,11.92
2022-09-20T01:32:00.948Z,11.90
2022-09-20T01:34:35.583Z,11.82
2022-09-20T01:37:13.221Z,11.85
2022-09-20T01:39:51.990Z,11.76
2022-09-20T01:42:24.114Z,11.66
2022-09-20T01:45:05.714Z,11.66
2022-09-20T01:47:43.334Z,11.71
2022-09-20T01:50:25.482Z,11.65
2022-09-20T01:53:27.086Z,11.66
2022-09-20T01:56:28.202Z,11.52
2022-09-20T01:59:41.758Z,11.49
2022-09-20T02:02:50.475Z,11.62
2022-09-20T02:05:54.494Z,11.58
2022-09-20T02:08:55.122Z,11.54
2022-09-20T02:11:24.463Z,11.52
2022-09-20T02:14:23.618Z,11.35
2022-09-20T02:16:56.617Z,11.54
2022-09-20T02:20:02.004Z,11.45
2022-09-20T02:23:01.337Z,11.40
2022-09-20T02:26:03.906Z,11.52
2022-09-20T02:28:53.324Z,11.52
2022-09-20T02:31:51.709Z,11.56
2022-09-20T02:34:52.306Z,11.58
2022-09-20T02:37:55.946Z,11.51
2022-09-20T02:40:47.854Z,11.52
2022-09-20T02:43:27.235Z,11.68
2022-09-20T02:46:04.967Z,11.65
2022-09-20T02:48:43.650Z,11.65
2022-09-20T02:51:24.061Z,11.54
2022-09-20T02:54:07.942Z,11.53
2022-09-20T02:56:46.421Z,11.49
2022-09-20T02:59:28.983Z,11.45
2022-09-20T03:02:09.627Z,11.46
2022-09-20T03:04:56.461Z,11.53
2022-09-20T03:07:35.519Z,11.54
2022-09-20T03:10:17.994Z,11.49
2022-09-20T03:13:01.926Z,11.37
2022-09-20T03:15:40.822Z,11.53
2022-09-20T03:18:15.743Z,11.54
2022-09-20T03:20:59.376Z,11.58
2022-09-20T03:23:48.019Z,11.60
2022-09-20T03:26:32.395Z,11.62
2022-09-20T03:29:06.349Z,11.61
2022-09-20T03:31:57.781Z,11.58
2022-09-20T03:34:45.299Z,11.55
2022-09-20T03:37:45.459Z,11.51
2022-09-20T03:40:53.007Z,11.55
2022-09-20T03:43:43.038Z,11.50
2022-09-20T03:46:19.495Z,11.51
2022-09-20T03:49:38.738Z,11.54
2022-09-20T03:52:21.988Z,11.61
2022-09-20T03:55:32.598Z,11.59
2022-09-20T03:58:24.206Z,11.59
2022-09-20T04:01:17.937Z,11.60
2022-09-20T04:03:55.271Z,11.59
2022-09-20T04:06:50.779Z,11.59
2022-09-20T04:09:54.028Z,11.55
2022-09-20T04:12:33.933Z,11.54
2022-09-20T04:15:20.808Z,11.60
2022-09-20T04:18:00.741Z,11.66
2022-09-20T04:20:38.572Z,11.68
2022-09-20T04:23:21.493Z,11.78
2022-09-20T04:25:52.195Z,11.76
2022-09-20T04:28:27.945Z,11.79
2022-09-20T04:31:04.791Z,11.80
2022-09-20T04:33:40.953Z,11.78
2022-09-20T04:36:29.358Z,11.79
2022-09-20T04:39:12.603Z,11.82
2022-09-20T04:42:33.942Z,11.83
2022-09-20T04:45:37.140Z,11.81
2022-09-20T04:49:00.916Z,11.85
2022-09-20T04:52:04.952Z,11.77
2022-09-20T04:55:14.669Z,11.80
2022-09-20T04:58:36.885Z,11.76
2022-09-20T05:02:12.408Z,11.85
2022-09-20T05:05:26.851Z,11.91
2022-09-20T05:08:41.296Z,11.94
2022-09-20T05:11:48.669Z,11.95
2022-09-20T05:14:50.466Z,11.95
2022-09-20T05:17:59.936Z,11.94
2022-09-20T05:21:01.488Z,12.05
2022-09-20T05:24:13.164Z,11.93
2022-09-20T05:26:59.288Z,11.94
2022-09-20T05:29:37.136Z,11.94
2022-09-20T05:32:13.437Z,11.86
2022-09-20T05:34:51.030Z,11.86
2022-09-20T05:37:33.502Z,11.89
2022-09-20T05:40:13.611Z,11.85
2022-09-20T05:42:51.573Z,11.73
2022-09-20T05:45:47.992Z,11.77
2022-09-20T05:48:23.989Z,11.67
2022-09-20T05:51:03.541Z,11.82
2022-09-20T05:54:13.871Z,11.85
2022-09-20T05:56:50.816Z,11.91
2022-09-20T05:59:31.638Z,11.88
2022-09-20T06:02:18.350Z,11.86
2022-09-20T06:04:58.927Z,11.86
2022-09-20T06:07:41.947Z,11.96
2022-09-20T06:11:11.878Z,11.95
2022-09-20T06:14:03.732Z,11.98
2022-09-20T06:16:44.118Z,11.99
2022-09-20T06:19:24.815Z,12.04
2022-09-20T06:21:57.603Z,12.14
2022-09-20T06:24:37.565Z,12.13
2022-09-20T06:27:15.769Z,12.15
2022-09-20T06:29:53.562Z,12.24
2022-09-20T06:32:21.594Z,12.23
2022-09-20T06:34:50.988Z,12.35
2022-09-20T06:37:54.249Z,12.48
2022-09-20T06:40:52.270Z,12.59
2022-09-20T06:43:21.807Z,12.61
2022-09-20T06:45:50.123Z,12.70
2022-09-20T06:48:19.254Z,12.80
2022-09-20T06:50:47.555Z,12.80
2022-09-20T06:53:25.127Z,12.88
2022-09-20T06:55:53.574Z,12.96
2022-09-20T06:58:24.865Z,12.97
2022-09-20T07:00:53.456Z,13.06
2022-09-20T07:03:21.628Z,13.06
2022-09-20T07:05:50.519Z,13.18
2022-09-20T07:08:18.724Z,13.29
2022-09-20T07:10:47.025Z,13.27
2022-09-20T07:13:15.169Z,13.17
2022-09-20T07:15:44.708Z,13.24
2022-09-20T07:18:13.008Z,13.21
2022-09-20T07:20:41.747Z,13.21
2022-09-20T07:23:10.111Z,13.33
2022-09-20T07:25:38.582Z,13.33
2022-09-20T07:28:07.398Z,13.50
2022-09-20T07:30:35.413Z,13.54
2022-09-20T07:33:04.883Z,13.67
2022-09-20T07:35:32.881Z,13.68
2022-09-20T07:38:01.873Z,13.76
2022-09-20T07:40:30.466Z,13.83
2022-09-20T07:42:58.669Z,13.87
2022-09-20T07:45:27.022Z,13.86
2022-09-20T07:47:55.340Z,13.87
2022-09-20T07:50:24.831Z,13.79
2022-09-20T07:52:53.154Z,13.85
2022-09-20T07:55:21.302Z,13.96
2022-09-20T07:57:49.613Z,14.03
2022-09-20T08:00:18.086Z,14.01
2022-09-20T08:02:46.111Z,14.12
2022-09-20T08:05:14.117Z,14.13
2022-09-20T08:07:43.494Z,14.18
2022-09-20T08:10:12.031Z,14.24
2022-09-20T08:15:29.216Z,14.38
2022-09-20T08:17:57.464Z,14.45
2022-09-20T08:20:25.616Z,14.45
2022-09-20T08:23:19.337Z,14.46
2022-09-20T08:25:44.148Z,14.58
2022-09-20T08:28:12.324Z,14.64
2022-09-20T08:30:40.708Z,14.62
2022-09-20T08:33:09.248Z,14.66
2022-09-20T08:35:38.699Z,14.64
2022-09-20T08:41:01.992Z,14.83
2022-09-20T08:43:37.779Z,14.89
2022-09-20T08:46:11.242Z,14.92
2022-09-20T08:48:39.595Z,15.03
2022-09-20T08:51:11.016Z,15.01
2022-09-20T08:53:49.272Z,14.74
2022-09-20T08:56:18.974Z,14.90
2022-09-20T08:58:47.528Z,15.10
2022-09-20T09:01:23.031Z,15.23
2022-09-20T09:03:52.611Z,15.38
2022-09-20T09:06:24.683Z,15.40
2022-09-20T09:08:56.783Z,15.31
2022-09-20T09:11:25.069Z,15.49
2022-09-20T09:13:58.165Z,15.45
2022-09-20T09:16:35.322Z,15.47
2022-09-20T09:19:33.293Z,15.62
2022-09-20T09:22:04.068Z,15.57
2022-09-20T09:24:33.949Z,15.58
2022-09-20T09:27:16.301Z,15.62
2022-09-20T09:29:51.980Z,15.62
2022-09-20T09:32:28.510Z,15.54
2022-09-20T09:34:57.406Z,15.63
2022-09-20T09:37:30.512Z,15.78
2022-09-20T09:40:16.388Z,15.84
2022-09-20T09:42:53.295Z,15.99
2022-09-20T09:45:38.475Z,15.73
2022-09-20T09:48:23.652Z,15.79
2022-09-20T09:51:07.361Z,15.90
2022-09-20T09:53:36.650Z,15.84
2022-09-20T09:56:48.434Z,15.92
2022-09-20T09:59:40.209Z,15.96
2022-09-20T10:02:42.977Z,15.89
2022-09-20T10:05:20.138Z,15.97
2022-09-20T10:07:56.454Z,15.91
2022-09-20T10:10:34.234Z,15.83
2022-09-20T10:13:19.903Z,15.85
2022-09-20T10:15:57.403Z,15.89
2022-09-20T10:18:44.517Z,15.94
2022-09-20T10:21:41.905Z,15.97
2022-09-20T10:24:31.818Z,15.97
2022-09-20T10:27:35.024Z,15.92
2022-09-20T10:30:14.423Z,15.90
2022-09-20T10:33:02.823Z,16.00
2022-09-20T10:35:46.846Z,15.91
2022-09-20T10:38:19.742Z,15.96
2022-09-20T10:41:45.410Z,15.95
2022-09-20T10:44:40.168Z,16.02
2022-09-20T10:47:18.123Z,15.96
2022-09-20T10:49:57.750Z,16.02
2022-09-20T10:52:42.864Z,16.06
2022-09-20T10:55:26.206Z,16.12
2022-09-20T10:58:45.897Z,16.20
2022-09-20T11:01:23.829Z,16.16
2022-09-20T11:04:18.310Z,16.22
2022-09-20T11:06:56.101Z,16.17
2022-09-20T11:09:30.862Z,16.16
2022-09-20T11:12:12.420Z,16.19
2022-09-20T11:14:45.037Z,16.19
2022-09-20T11:17:19.582Z,16.21
2022-09-20T11:20:06.188Z,16.24
2022-09-20T11:22:41.884Z,16.07
2022-09-20T11:25:20.899Z,16.07
2022-09-20T11:27:56.604Z,16.07
2022-09-20T11:30:25.812Z,16.02
2022-09-20T11:33:01.513Z,15.94
2022-09-20T11:35:36.969Z,15.92
2022-09-20T11:38:14.858Z,15.92
2022-09-20T11:40:49.940Z,15.87
2022-09-20T11:43:20.960Z,15.96
2022-09-20T11:45:56.585Z,16.05
2022-09-20T11:48:29.612Z,16.04
2022-09-20T11:51:49.536Z,16.18
2022-09-20T11:54:42.200Z,16.29
2022-09-20T11:57:15.759Z,16.34
2022-09-20T11:59:51.097Z,16.39
2022-09-20T12:02:24.749Z,16.45
2022-09-20T12:04:53.877Z,16.50
2022-09-20T12:07:28.153Z,16.67
2022-09-20T12:10:01.208Z,16.78
2022-09-20T12:12:37.523Z,16.70
2022-09-20T12:15:22.791Z,16.80
2022-09-20T12:18:28.602Z,16.88
2022-09-20T12:21:04.464Z,17.00
2022-09-20T12:24:19.134Z,16.87
2022-09-20T12:26:49.578Z,16.87
2022-09-20T12:30:15.988Z,16.93
2022-09-20T12:32:57.371Z,17.11
2022-09-20T12:36:16.826Z,17.28
2022-09-20T12:38:59.977Z,17.42
2022-09-20T12:41:29.268Z,17.52
2022-09-20T12:44:06.586Z,17.64
2022-09-20T12:46:43.546Z,17.62
2022-09-20T12:49:44.006Z,17.50
2022-09-20T12:52:58.008Z,17.47
2022-09-20T12:55:36.727Z,17.42
2022-09-20T12:58:11.633Z,17.33
2022-09-20T13:00:45.245Z,17.36
2022-09-20T13:03:28.379Z,17.44
2022-09-20T13:06:26.485Z,17.34
2022-09-20T13:09:05.598Z,17.42
2022-09-20T13:11:42.705Z,17.36
2022-09-20T13:14:15.401Z,17.42
2022-09-20T13:16:53.372Z,17.39
2022-09-20T13:19:25.858Z,17.48
2022-09-20T13:22:02.478Z,17.47
2022-09-20T13:24:35.574Z,17.43
2022-09-20T13:27:09.786Z,17.29
2022-09-20T13:29:42.260Z,17.34
2022-09-20T13:32:23.621Z,17.44
2022-09-20T13:35:07.618Z,17.10
2022-09-20T13:37:37.560Z,17.04
2022-09-20T13:40:10.026Z,17.00
2022-09-20T13:42:39.422Z,17.04
2022-09-20T13:45:15.064Z,17.00
2022-09-20T13:47:45.061Z,16.95
2022-09-20T13:50:22.573Z,16.88
2022-09-20T13:52:53.785Z,16.89
2022-09-20T13:55:35.929Z,16.86
2022-09-20T13:58:09.517Z,16.85
2022-09-20T14:00:46.064Z,16.80
2022-09-20T14:03:18.688Z,16.78
2022-09-20T14:05:49.314Z,16.79
2022-09-20T14:08:24.447Z,16.71
2022-09-20T14:11:07.284Z,16.69
2022-09-20T14:13:42.685Z,16.63
2022-09-20T14:16:12.408Z,16.48
2022-09-20T14:18:42.321Z,16.47
2022-09-20T14:21:12.363Z,16.45
2022-09-20T14:23:52.507Z,16.49
2022-09-20T14:26:27.682Z,16.55
2022-09-20T14:28:57.306Z,16.48
2022-09-20T14:31:29.780Z,16.49
2022-09-20T14:34:00.731Z,16.48
2022-09-20T14:36:31.997Z,16.43
2022-09-20T14:39:06.559Z,16.40
2022-09-20T14:41:38.293Z,16.42
2022-09-20T14:44:24.010Z,16.43
2022-09-20T14:46:52.911Z,16.31
2022-09-20T14:49:31.677Z,16.30
2022-09-20T14:52:36.644Z,16.25
2022-09-20T14:55:28.235Z,16.30
2022-09-20T14:58:03.172Z,16.32
2022-09-20T15:00:50.522Z,16.40
2022-09-20T15:03:27.580Z,16.41
2022-09-20T15:05:56.030Z,16.60
2022-09-20T15:08:24.627Z,16.57
2022-09-20T15:10:52.814Z,16.43
2022-09-20T15:13:20.813Z,16.36
2022-09-20T15:15:53.628Z,16.45
2022-09-20T15:18:25.273Z,16.32
2022-09-20T15:20:55.319Z,16.19
2022-09-20T15:23:23.874Z,16.29
2022-09-20T15:25:54.367Z,16.40
2022-09-20T15:28:23.030Z,16.46
2022-09-20T15:30:53.522Z,16.44
2022-09-20T15:33:22.637Z,16.38
2022-09-20T15:35:51.227Z,16.42
2022-09-20T15:38:20.938Z,16.51
2022-09-20T15:40:50.365Z,16.41
2022-09-20T15:43:21.894Z,16.37
2022-09-20T15:45:54.267Z,16.26
2022-09-20T15:48:25.220Z,16.33
2022-09-20T15:51:04.471Z,16.33
2022-09-20T15:53:35.372Z,16.33
2022-09-20T15:56:05.878Z,16.35
2022-09-20T15:58:36.517Z,16.40
2022-09-20T16:01:08.811Z,16.32
2022-09-20T16:03:37.631Z,16.29
2022-09-20T16:06:08.375Z,16.28
2022-09-20T16:08:40.137Z,16.25
2022-09-20T16:11:10.958Z,16.29
2022-09-20T16:13:39.577Z,16.28
2022-09-20T16:16:14.053Z,16.37
2022-09-20T16:19:00.508Z,16.30
2022-09-20T16:21:29.053Z,16.26
2022-09-20T16:23:58.124Z,16.25
2022-09-20T16:26:29.146Z,16.21
2022-09-20T16:28:57.741Z,16.25
2022-09-20T16:31:44.820Z,16.25
2022-09-20T16:34:16.932Z,16.28
2022-09-20T16:36:45.862Z,16.23
2022-09-20T16:39:15.404Z,16.21
2022-09-20T16:41:45.348Z,16.20
2022-09-20T16:44:13.901Z,16.24
2022-09-20T16:46:44.464Z,16.29
2022-09-20T16:49:14.132Z,16.23
2022-09-20T16:51:44.073Z,16.19
2022-09-20T16:54:14.218Z,16.09
2022-09-20T16:56:45.285Z,16.12
2022-09-20T16:59:15.722Z,16.10
2022-09-20T17:01:46.044Z,16.06
2022-09-20T17:04:14.916Z,16.09
2022-09-20T17:06:44.147Z,16.03
2022-09-20T17:09:12.611Z,16.03
2022-09-20T17:11:44.584Z,16.06
2022-09-20T17:14:13.869Z,16.00
2022-09-20T17:16:47.463Z,15.92
2022-09-20T17:19:18.319Z,15.92
2022-09-20T17:21:50.243Z,15.87
2022-09-20T17:24:20.487Z,15.88
2022-09-20T17:26:50.415Z,15.83
2022-09-20T17:29:21.530Z,15.81
2022-09-20T17:31:55.566Z,15.71
2022-09-20T17:34:26.052Z,15.71
2022-09-20T17:36:55.273Z,15.70
2022-09-20T17:39:24.338Z,15.65
2022-09-20T17:41:53.606Z,15.61
2022-09-20T17:44:21.830Z,15.57
2022-09-20T17:46:54.236Z,15.57
2022-09-20T17:49:24.238Z,15.57
2022-09-20T17:51:54.358Z,15.51
2022-09-20T17:54:23.292Z,15.50
2022-09-20T17:56:55.550Z,15.51
2022-09-20T17:59:24.533Z,15.46
2022-09-20T18:01:55.387Z,15.47
2022-09-20T18:04:24.425Z,15.41
2022-09-20T18:06:54.881Z,15.36
2022-09-20T18:09:27.222Z,15.33
2022-09-20T18:11:57.312Z,15.27
2022-09-20T18:14:32.187Z,15.22
2022-09-20T18:17:02.091Z,15.13
2022-09-20T18:19:40.076Z,15.06
2022-09-20T18:22:08.159Z,15.03
2022-09-20T18:24:36.141Z,14.99
2022-09-20T18:27:04.859Z,15.02
2022-09-20T18:29:36.686Z,14.91
2022-09-20T18:32:08.606Z,14.88
2022-09-20T18:34:36.601Z,14.81
2022-09-20T18:37:10.020Z,14.79
2022-09-20T18:39:40.695Z,14.79
2022-09-20T18:42:09.039Z,14.85
2022-09-20T18:44:37.188Z,14.83
2022-09-20T18:47:08.057Z,14.82
2022-09-20T18:49:39.328Z,14.74
2022-09-20T18:52:09.268Z,14.70
2022-09-20T18:54:39.045Z,14.71
2022-09-20T18:57:13.494Z,14.68
2022-09-20T18:59:49.726Z,14.66
2022-09-20T19:02:49.333Z,14.70
2022-09-20T19:05:25.566Z,14.68
2022-09-20T19:08:11.902Z,14.64
2022-09-20T19:10:48.528Z,14.60
2022-09-20T19:13:32.343Z,14.57
2022-09-20T19:16:18.657Z,14.56
2022-09-20T19:19:20.947Z,14.52
2022-09-20T19:22:01.682Z,14.51
2022-09-20T19:24:47.037Z,14.49
2022-09-20T19:27:15.885Z,14.46
2022-09-20T19:29:44.973Z,14.47
2022-09-20T19:32:21.018Z,14.44
2022-09-20T19:34:55.781Z,14.39
2022-09-20T19:37:36.551Z,14.34
2022-09-20T19:40:29.841Z,14.23
2022-09-20T19:43:23.587Z,14.21
2022-09-20T19:46:03.304Z,14.12
2022-09-20T19:48:38.982Z,14.09
2022-09-20T19:51:13.903Z,14.05
2022-09-20T19:53:42.835Z,13.98
2022-09-20T19:56:25.173Z,14.02
2022-09-20T19:58:55.888Z,13.92
2022-09-20T20:01:27.395Z,13.90
2022-09-20T20:03:56.713Z,13.91
2022-09-20T20:06:34.183Z,13.88
2022-09-20T20:09:09.170Z,13.93
2022-09-20T20:11:46.986Z,13.90
2022-09-20T20:14:29.510Z,13.91
2022-09-20T20:17:11.398Z,13.89
2022-09-20T20:19:59.663Z,13.81
2022-09-20T20:23:17.960Z,13.81
2022-09-20T20:25:59.894Z,13.83
2022-09-20T20:28:28.074Z,13.82
2022-09-20T20:30:59.777Z,13.82
2022-09-20T20:33:31.855Z,13.75
2022-09-20T20:36:06.058Z,13.68
2022-09-20T20:38:37.714Z,13.62
2022-09-20T20:41:08.575Z,13.52
2022-09-20T20:43:38.840Z,13.38
2022-09-20T20:46:14.809Z,13.28
2022-09-20T20:48:43.214Z,13.16
2022-09-20T20:51:16.171Z,13.12
2022-09-20T20:53:48.024Z,13.10
2022-09-20T20:56:19.355Z,12.98
2022-09-20T20:58:48.864Z,13.00
2022-09-20T21:01:19.574Z,12.95
2022-09-20T21:03:50.060Z,12.97
2022-09-20T21:06:18.370Z,12.88
2022-09-20T21:08:50.052Z,12.89
2022-09-20T21:11:21.816Z,12.95
2022-09-20T21:13:50.053Z,12.97
2022-09-20T21:16:20.616Z,12.96
2022-09-20T21:18:50.659Z,12.92
2022-09-20T21:21:21.724Z,12.89
2022-09-20T21:23:54.261Z,12.75
2022-09-20T21:26:24.593Z,12.69
2022-09-20T21:28:57.335Z,12.68
2022-09-20T21:31:25.945Z,12.56
2022-09-20T21:33:54.892Z,12.58
2022-09-20T21:36:26.005Z,12.58
2022-09-20T21:38:55.850Z,12.64
2022-09-20T21:41:25.963Z,12.73
2022-09-20T21:43:57.238Z,12.61
2022-09-20T21:46:28.280Z,12.61
2022-09-20T21:48:58.444Z,12.59
2022-09-20T21:51:29.738Z,12.58
2022-09-20T21:54:01.360Z,12.59
2022-09-20T21:56:32.060Z,12.56
2022-09-20T21:59:02.546Z,12.51
2022-09-20T22:01:33.879Z,12.51
2022-09-20T22:04:05.845Z,12.44
2022-09-20T22:06:35.925Z,12.42
2022-09-20T22:09:08.885Z,12.44
2022-09-20T22:11:40.819Z,12.46
2022-09-20T22:14:10.591Z,12.46
2022-09-20T22:16:40.722Z,12.44
2022-09-20T22:19:11.832Z,12.42
2022-09-20T22:21:42.903Z,12.33
2022-09-20T22:24:14.154Z,12.24
2022-09-20T22:26:44.571Z,12.24
2022-09-20T22:29:12.934Z,12.23
2022-09-20T22:31:45.345Z,12.19
2022-09-20T22:34:17.511Z,12.14
2022-09-20T22:36:46.586Z,12.05
2022-09-20T22:39:17.042Z,11.98
2022-09-20T22:41:47.684Z,11.96
2022-09-20T22:44:16.289Z,11.95
2022-09-20T22:46:44.310Z,11.90
2022-09-20T22:49:12.517Z,11.91
2022-09-20T22:51:40.618Z,11.91
2022-09-20T22:54:10.338Z,11.86
2022-09-20T22:56:41.383Z,11.75
2022-09-20T22:59:12.223Z,11.79
2022-09-20T23:01:43.187Z,11.76
2022-09-20T23:04:14.059Z,11.78
2022-09-20T23:06:44.835Z,11.81
2022-09-20T23:09:15.602Z,11.83
2022-09-20T23:11:45.750Z,11.83
2022-09-20T23:14:17.328Z,11.78
2022-09-20T23:16:46.109Z,11.72
2022-09-20T23:19:15.532Z,11.73
2022-09-20T23:21:44.747Z,11.72
2022-09-20T23:24:15.090Z,11.63
2022-09-20T23:26:45.318Z,11.67
2022-09-20T23:29:15.969Z,11.64
2022-09-20T23:31:47.120Z,11.67
2022-09-20T23:34:17.225Z,11.66
2022-09-20T23:36:46.341Z,11.58
2022-09-20T23:39:15.451Z,11.58
2022-09-20T23:41:50.001Z,11.54
2022-09-20T23:44:18.874Z,11.50
2022-09-20T23:46:46.856Z,11.45
2022-09-20T23:49:14.900Z,11.44
2022-09-20T23:51:42.939Z,11.36
2022-09-20T23:54:10.918Z,11.31
2022-09-20T23:56:40.161Z,11.35
2022-09-20T23:59:09.463Z,11.34
